Time;durP1;ratioP1;P1;durP2;ratioP2;P2;SDS_P1;SDS_P2;PMS_P1;PMS_P2;Temp;Humidity;BMP_temperature;BMP_pressure;BME280_temperature;BME280_humidity;BME280_pressure;Samples;Min_cycle;Max_cycle;Signal;HPM_P1;HPM_P2
2021/01/29 00:01:26;;;;;;;25.98;16.17;;;-0.40;99.90;;;;;;5040235;28;20128;-55
2021/01/29 00:03:51;;;;;;;28.90;16.33;;;-0.50;99.90;;;;;;5029104;28;20111;-55
2021/01/29 00:06:17;;;;;;;35.25;18.98;;;-0.40;99.90;;;;;;5040413;28;20040;-56
2021/01/29 00:08:43;;;;;;;27.90;16.00;;;-0.20;99.90;;;;;;5048971;28;20040;-55
2021/01/29 00:11:09;;;;;;;29.23;15.60;;;0.00;99.90;;;;;;5046707;28;20028;-58
2021/01/29 00:13:34;;;;;;;23.73;14.23;;;-0.10;99.90;;;;;;5048895;28;20033;-57
2021/01/29 00:16:00;;;;;;;23.98;13.18;;;-0.20;99.90;;;;;;5046142;28;20040;-54
2021/01/29 00:18:26;;;;;;;26.33;14.68;;;-0.30;99.90;;;;;;5048430;28;20024;-56
2021/01/29 00:20:52;;;;;;;21.70;13.07;;;-0.30;99.90;;;;;;5047372;28;20059;-56
2021/01/29 00:23:19;;;;;;;26.85;15.45;;;-0.30;99.90;;;;;;5048889;28;20036;-58
2021/01/29 00:25:47;;;;;;;23.73;14.38;;;-0.30;99.90;;;;;;5046373;28;20061;-57
2021/01/29 00:28:14;;;;;;;23.05;14.70;;;-0.20;99.90;;;;;;5045203;28;20036;-57
2021/01/29 00:30:40;;;;;;;25.27;14.15;;;-0.10;99.90;;;;;;5047387;28;20039;-53
2021/01/29 00:33:08;;;;;;;22.55;13.77;;;-0.10;99.90;;;;;;5048217;28;20087;-59
2021/01/29 00:35:35;;;;;;;28.63;14.02;;;-0.20;99.90;;;;;;5047221;28;20503;-56
2021/01/29 00:38:01;;;;;;;24.05;13.98;;;-0.20;99.90;;;;;;5039017;28;20053;-57
2021/01/29 00:40:27;;;;;;;24.05;13.95;;;-0.20;99.90;;;;;;5045200;28;20048;-57
2021/01/29 00:42:54;;;;;;;22.95;14.68;;;-0.30;99.90;;;;;;5045859;28;20151;-58
2021/01/29 00:45:23;;;;;;;26.95;16.10;;;-0.30;99.90;;;;;;5046453;28;20037;-56
2021/01/29 00:47:49;;;;;;;28.40;16.48;;;-0.30;99.90;;;;;;5048202;28;20029;-55
2021/01/29 00:50:15;;;;;;;27.73;15.93;;;-0.40;99.90;;;;;;5047209;28;20033;-57
2021/01/29 00:52:41;;;;;;;27.60;16.13;;;-0.40;99.90;;;;;;5048443;28;20360;-53
2021/01/29 00:55:08;;;;;;;27.60;15.00;;;-0.50;99.90;;;;;;5047151;28;20369;-58
2021/01/29 00:57:34;;;;;;;27.42;15.95;;;-0.50;99.90;;;;;;5046463;28;20032;-58
2021/01/29 00:59:59;;;;;;;27.80;17.17;;;-0.50;99.90;;;;;;5045300;28;20037;-56
2021/01/29 01:02:25;;;;;;;27.63;16.27;;;-0.50;99.90;;;;;;5046493;28;20108;-57
2021/01/29 01:04:51;;;;;;;27.40;16.52;;;-0.50;99.90;;;;;;5048383;28;20033;-54
2021/01/29 01:07:17;;;;;;;32.17;17.80;;;-0.50;99.90;;;;;;5044510;28;20108;-53
2021/01/29 01:09:45;;;;;;;32.00;17.40;;;-0.50;99.90;;;;;;5046198;28;20032;-56
2021/01/29 01:12:10;;;;;;;31.80;18.20;;;-0.50;99.90;;;;;;5047423;28;20416;-53
2021/01/29 01:14:36;;;;;;;33.22;17.23;;;-0.50;99.90;;;;;;5046971;28;20041;-54
2021/01/29 01:17:03;;;;;;;30.58;17.85;;;-0.50;99.90;;;;;;5047486;28;20029;-56
2021/01/29 01:19:29;;;;;;;34.42;18.08;;;-0.50;99.90;;;;;;5042789;28;20190;-55
2021/01/29 01:21:55;;;;;;;33.72;17.63;;;-0.50;99.90;;;;;;5035794;28;20132;-55
2021/01/29 01:24:20;;;;;;;31.27;16.55;;;-0.40;99.90;;;;;;5031682;28;20033;-54
2021/01/29 01:26:46;;;;;;;29.92;15.50;;;-0.30;99.90;;;;;;5044408;28;20033;-56
2021/01/29 01:29:12;;;;;;;22.38;13.35;;;-0.30;99.90;;;;;;5039146;28;20047;-56
2021/01/29 01:31:37;;;;;;;22.85;13.60;;;-0.20;99.90;;;;;;5051345;28;20353;-58
2021/01/29 01:34:03;;;;;;;24.33;13.27;;;0.10;99.90;;;;;;5044251;28;20037;-56
2021/01/29 01:36:29;;;;;;;22.40;12.40;;;0.30;99.90;;;;;;5032055;28;20044;-57
2021/01/29 01:38:55;;;;;;;24.67;12.30;;;0.40;99.90;;;;;;5050901;28;20045;-56
2021/01/29 01:41:20;;;;;;;20.95;12.35;;;0.40;99.90;;;;;;5050046;28;20124;-54
2021/01/29 01:43:46;;;;;;;26.30;13.13;;;0.40;99.90;;;;;;5050545;28;20037;-52
2021/01/29 01:46:16;;;;;;;22.90;12.25;;;0.50;99.90;;;;;;5050096;28;20102;-53
2021/01/29 01:49:04;;;;;;;19.90;12.65;;;0.50;99.90;;;;;;5049316;28;20033;-56
2021/01/29 01:51:38;;;;;;;16.65;11.57;;;0.30;99.90;;;;;;5051125;28;20393;-58
2021/01/29 01:54:17;;;;;;;17.08;10.80;;;0.40;99.90;;;;;;5050406;28;20033;-50
2021/01/29 01:56:52;;;;;;;23.13;12.48;;;0.40;99.90;;;;;;5051727;28;20039;-57
2021/01/29 01:59:22;;;;;;;20.67;11.77;;;0.60;99.90;;;;;;5044392;28;20067;-56
2021/01/29 02:01:51;;;;;;;19.65;11.18;;;0.60;99.90;;;;;;5049778;28;20037;-54
2021/01/29 02:04:19;;;;;;;22.00;12.27;;;0.60;99.90;;;;;;5051047;28;20033;-55
2021/01/29 02:07:01;;;;;;;20.45;11.48;;;0.60;99.90;;;;;;5050016;28;20070;-55
2021/01/29 02:09:27;;;;;;;18.67;10.85;;;0.60;99.90;;;;;;5048283;28;20033;-56
2021/01/29 02:11:54;;;;;;;22.67;11.50;;;0.50;99.90;;;;;;5030924;28;20030;-58
2021/01/29 02:14:20;;;;;;;20.92;11.02;;;0.50;99.90;;;;;;5038590;28;20040;-57
2021/01/29 02:17:06;;;;;;;19.58;10.93;;;0.60;99.90;;;;;;5049705;28;20115;-51
2021/01/29 02:20:00;;;;;;;18.75;10.48;;;0.60;99.90;;;;;;5050007;28;20044;-57
2021/01/29 02:23:07;;;;;;;19.20;10.20;;;0.50;99.90;;;;;;5050597;28;20492;-55
2021/01/29 02:25:56;;;;;;;;;;;0.30;99.90;;;;;;5050877;28;20404;-57
2021/01/29 02:28:47;;;;;;;19.67;10.15;;;0.20;99.90;;;;;;5048109;28;19998;-53
2021/01/29 02:31:49;;;;;;;16.38;10.27;;;0.30;99.90;;;;;;5042740;28;20037;-52
2021/01/29 02:34:15;;;;;;;18.70;10.20;;;0.10;99.90;;;;;;5049757;28;20033;-54
2021/01/29 02:36:49;;;;;;;19.77;11.13;;;0.20;99.90;;;;;;5050333;28;20358;-55
2021/01/29 02:39:32;;;;;;;20.40;10.63;;;0.30;99.90;;;;;;5049293;28;20049;-55
2021/01/29 02:42:13;;;;;;;17.50;10.57;;;0.40;99.90;;;;;;5292404;22;20155;-56
2021/01/29 02:45:21;;;;;;;17.23;9.98;;;0.50;99.90;;;;;;5066746;28;20050;-52
2021/01/29 02:47:56;;;;;;;14.43;9.57;;;0.50;99.90;;;;;;5056162;28;20056;-50
2021/01/29 02:50:45;;;;;;;18.42;10.50;;;0.30;99.90;;;;;;5068930;28;20146;-53
2021/01/29 02:53:29;;;;;;;15.23;9.55;;;0.30;99.90;;;;;;5066868;28;20682;-51
2021/01/29 02:56:15;;;;;;;16.77;9.20;;;0.50;99.90;;;;;;5067575;28;20187;-52
2021/01/29 02:58:59;;;;;;;16.77;9.75;;;0.40;99.90;;;;;;5066737;28;20044;-50
2021/01/29 03:01:59;;;;;;;22.75;10.02;;;0.40;99.90;;;;;;5057960;28;20487;-49
2021/01/29 03:04:31;;;;;;;18.15;10.52;;;0.40;99.90;;;;;;5067703;28;20036;-51
2021/01/29 03:07:09;;;;;;;17.65;9.30;;;0.60;99.90;;;;;;5069666;28;20028;-53
2021/01/29 03:10:04;;;;;;;16.73;10.52;;;0.60;99.90;;;;;;5069038;28;20029;-53
2021/01/29 03:12:37;;;;;;;18.15;11.40;;;0.50;99.90;;;;;;5069840;28;20428;-56
2021/01/29 03:15:13;;;;;;;17.77;10.65;;;0.50;99.90;;;;;;5063494;28;20030;-53
2021/01/29 03:17:59;;;;;;;19.25;11.23;;;0.70;99.90;;;;;;5069028;28;20071;-53
2021/01/29 03:20:36;;;;;;;17.23;10.13;;;0.70;99.90;;;;;;5069151;28;20219;-55
2021/01/29 03:23:10;;;;;;;19.08;11.43;;;0.70;99.90;;;;;;5068906;28;20337;-52
2021/01/29 03:25:42;;;;;;;18.42;9.57;;;0.70;99.90;;;;;;5068678;28;20438;-56
2021/01/29 03:28:13;;;;;;;22.85;10.75;;;0.80;99.90;;;;;;5069086;28;20039;-54
2021/01/29 03:30:42;;;;;;;17.13;10.07;;;0.80;99.90;;;;;;5068123;28;20128;-53
2021/01/29 03:33:12;;;;;;;17.00;10.35;;;0.80;99.90;;;;;;5068912;28;20131;-49
2021/01/29 03:35:41;;;;;;;16.27;9.52;;;0.80;99.90;;;;;;5067891;28;20063;-54
2021/01/29 03:38:35;;;;;;;16.27;9.93;;;0.70;99.90;;;;;;5069345;28;20040;-57
2021/01/29 03:41:27;;;;;;;16.40;9.20;;;0.80;99.90;;;;;;5066404;28;20047;-53
2021/01/29 03:44:02;;;;;;;16.08;9.93;;;0.80;99.90;;;;;;5055938;28;20048;-53
2021/01/29 03:46:54;;;;;;;16.92;9.82;;;0.80;99.90;;;;;;5067275;28;20036;-51
2021/01/29 03:49:42;;;;;;;19.25;9.63;;;0.90;99.90;;;;;;5062162;28;20033;-54
2021/01/29 03:52:14;;;;;;;20.85;10.23;;;0.90;99.90;;;;;;5067872;28;20123;-51
2021/01/29 03:54:49;;;;;;;16.83;10.60;;;0.90;99.90;;;;;;5067606;28;20056;-50
2021/01/29 03:57:24;;;;;;;14.88;9.85;;;0.90;99.90;;;;;;5067635;28;20028;-51
2021/01/29 04:00:22;;;;;;;16.42;9.70;;;0.80;99.90;;;;;;5067400;28;20076;-52
2021/01/29 04:02:55;;;;;;;21.95;11.00;;;0.60;99.90;;;;;;4985119;28;20371;-55
2021/01/29 04:05:32;;;;;;;19.70;10.38;;;0.80;99.90;;;;;;4983917;28;20042;-53
2021/01/29 04:08:10;;;;;;;17.60;9.63;;;0.70;99.90;;;;;;4986574;28;20564;-54
2021/01/29 04:10:37;;;;;;;17.85;10.57;;;0.80;99.90;;;;;;4985636;28;20063;-51
2021/01/29 04:13:17;;;;;;;18.20;9.02;;;0.80;99.90;;;;;;4986477;28;20552;-54
2021/01/29 04:15:51;;;;;;;16.80;9.50;;;0.80;99.90;;;;;;4985152;28;20660;-52
2021/01/29 04:18:28;;;;;;;19.50;9.18;;;0.80;99.90;;;;;;4985247;28;20041;-56
2021/01/29 04:21:18;;;;;;;15.85;10.32;;;0.90;99.90;;;;;;4986444;28;20141;-55
2021/01/29 04:23:54;;;;;;;18.52;10.13;;;0.90;99.90;;;;;;4985771;28;20207;-54
2021/01/29 04:26:25;;;;;;;17.00;10.13;;;0.90;99.90;;;;;;4984462;28;20498;-55
2021/01/29 04:29:01;;;;;;;15.35;9.70;;;0.90;99.90;;;;;;4984913;28;20544;-52
2021/01/29 04:31:29;;;;;;;19.60;10.02;;;0.80;99.90;;;;;;4984203;28;20580;-54
2021/01/29 04:34:11;;;;;;;17.27;9.88;;;0.90;99.90;;;;;;4985094;28;20534;-56
2021/01/29 04:36:38;;;;;;;15.32;10.50;;;0.90;99.90;;;;;;4984679;28;20034;-51
2021/01/29 04:39:15;;;;;;;20.00;10.55;;;0.80;99.90;;;;;;5001576;28;20094;-53
2021/01/29 04:42:09;;;;;;;15.60;9.45;;;0.60;99.90;;;;;;5052609;28;20060;-54
2021/01/29 04:45:09;;;;;;;21.83;9.65;;;0.70;99.90;;;;;;5065607;28;20521;-57
2021/01/29 04:47:44;;;;;;;21.10;10.68;;;0.80;99.90;;;;;;5063918;28;20135;-51
2021/01/29 04:50:45;;;;;;;18.63;10.63;;;0.90;99.90;;;;;;5067121;28;20082;-54
2021/01/29 04:53:38;;;;;;;17.55;10.23;;;1.00;99.90;;;;;;5070413;28;20446;-51
2021/01/29 04:56:16;;;;;;;16.25;10.00;;;0.90;99.90;;;;;;5072058;28;20037;-57
2021/01/29 04:59:09;;;;;;;16.77;9.80;;;1.00;99.90;;;;;;5066459;28;20119;-47
2021/01/29 05:01:54;;;;;;;15.23;9.50;;;1.00;99.90;;;;;;5070117;28;20040;-55
2021/01/29 05:04:55;;;;;;;16.95;9.68;;;1.10;99.90;;;;;;5070738;28;20071;-55
2021/01/29 05:07:49;;;;;;;15.55;9.55;;;1.10;99.90;;;;;;5052803;28;20362;-53
2021/01/29 05:10:26;;;;;;;18.73;10.52;;;1.10;99.90;;;;;;5064583;28;20108;-52
2021/01/29 05:13:03;;;;;;;;;;;1.20;99.90;;;;;;5071240;28;20367;-50
2021/01/29 05:15:44;;;;;;;18.13;10.35;;;1.30;99.90;;;;;;5070317;28;19942;-54
2021/01/29 05:18:49;;;;;;;21.13;10.55;;;1.30;99.90;;;;;;5069900;28;20127;-50
2021/01/29 05:21:40;;;;;;;14.98;9.35;;;1.30;99.90;;;;;;5071066;28;20089;-53
2021/01/29 05:24:09;;;;;;;16.27;9.27;;;1.20;99.90;;;;;;5068835;28;20443;-54
2021/01/29 05:26:53;;;;;;;15.35;9.93;;;1.20;99.90;;;;;;5071002;28;20116;-54
2021/01/29 05:29:38;;;;;;;15.18;10.40;;;1.10;99.90;;;;;;5066185;28;20033;-51
2021/01/29 05:32:16;;;;;;;17.88;10.07;;;1.10;99.90;;;;;;5059917;28;20036;-55
2021/01/29 05:34:48;;;;;;;23.52;12.32;;;1.10;99.90;;;;;;5064502;28;20039;-53
2021/01/29 05:38:04;;;;;;;23.48;13.25;;;1.10;99.90;;;;;;5049534;28;20036;-54
2021/01/29 05:41:00;;;;;;;20.45;12.15;;;1.10;99.90;;;;;;5026531;28;20059;-54
2021/01/29 05:43:35;;;;;;;22.67;12.82;;;1.10;99.90;;;;;;5057466;28;20048;-56
2021/01/29 05:46:33;;;;;;;24.40;13.60;;;1.10;99.90;;;;;;5069011;28;20224;-55
2021/01/29 05:49:14;;;;;;;22.23;12.90;;;1.10;99.90;;;;;;5069973;28;20037;-54
2021/01/29 05:52:02;;;;;;;26.63;14.80;;;1.10;99.90;;;;;;5069860;28;20028;-53
2021/01/29 05:55:05;;;;;;;27.13;15.50;;;1.10;99.90;;;;;;5071219;28;20043;-50
2021/01/29 05:57:47;;;;;;;30.70;16.10;;;1.20;99.90;;;;;;5069044;28;20400;-54
2021/01/29 06:00:47;;;;;;;32.72;15.02;;;1.30;99.90;;;;;;5064904;28;20136;-55
2021/01/29 06:03:57;;;;;;;20.85;11.07;;;1.30;99.90;;;;;;5065087;28;20116;-52
2021/01/29 06:06:23;;;;;;;14.60;9.93;;;1.30;99.90;;;;;;5070989;28;20031;-50
2021/01/29 06:09:21;;;;;;;15.18;9.73;;;1.20;99.90;;;;;;5071244;28;20037;-56
2021/01/29 06:12:02;;;;;;;15.48;8.95;;;1.20;99.90;;;;;;5069728;28;20589;-52
2021/01/29 06:14:40;;;;;;;19.85;10.52;;;1.20;99.90;;;;;;5069655;28;20471;-54
2021/01/29 06:17:37;;;;;;;10.05;7.55;;;1.40;99.90;;;;;;5070625;28;20158;-51
2021/01/29 06:20:14;;;;;;;;;;;1.40;99.90;;;;;;5070536;28;20047;-51
2021/01/29 06:22:42;;;;;;;15.60;8.68;;;1.30;99.90;;;;;;5069458;28;19916;-52
2021/01/29 06:25:43;;;;;;;11.40;7.35;;;1.30;99.90;;;;;;5070586;28;20036;-52
2021/01/29 06:28:36;;;;;;;17.40;9.05;;;1.30;99.90;;;;;;5059030;28;20037;-52
2021/01/29 06:31:24;;;;;;;14.23;7.68;;;1.30;99.90;;;;;;5070330;28;20024;-55
2021/01/29 06:34:09;;;;;;;13.75;7.90;;;1.40;99.90;;;;;;5068206;28;20094;-55
2021/01/29 06:36:46;;;;;;;14.75;8.15;;;1.40;99.90;;;;;;5068994;28;20480;-55
2021/01/29 06:39:12;;;;;;;18.20;9.32;;;1.50;99.90;;;;;;5066341;28;20188;-51
2021/01/29 06:42:07;;;;;;;14.95;9.75;;;1.60;99.90;;;;;;5067971;28;20488;-52
2021/01/29 06:44:51;;;;;;;18.30;10.07;;;1.70;99.90;;;;;;5066593;28;20107;-54
2021/01/29 06:47:54;;;;;;;12.77;8.80;;;1.70;99.90;;;;;;5067560;28;20032;-48
2021/01/29 06:50:46;;;;;;;14.20;8.30;;;1.80;99.90;;;;;;5068063;28;20128;-53
2021/01/29 06:53:48;;;;;;;17.55;9.75;;;1.80;99.90;;;;;;5054668;28;20127;-56
2021/01/29 06:56:45;;;;;;;15.93;9.65;;;1.90;99.90;;;;;;5069121;28;20045;-53
2021/01/29 06:59:40;;;;;;;17.42;10.02;;;2.10;99.90;;;;;;5068335;28;20475;-53
2021/01/29 07:02:39;;;;;;;16.15;9.02;;;2.10;99.90;;;;;;5069545;28;20028;-55
2021/01/29 07:05:27;;;;;;;16.58;9.07;;;2.20;99.90;;;;;;5068330;28;20064;-53
2021/01/29 07:07:55;;;;;;;22.63;10.20;;;2.20;99.90;;;;;;5053724;28;20035;-54
2021/01/29 07:10:31;;;;;;;16.60;9.88;;;2.30;99.90;;;;;;5064629;28;20036;-55
2021/01/29 07:13:03;;;;;;;;;;;2.30;99.90;;;;;;5050594;28;20125;-56
2021/01/29 07:16:01;;;;;;;18.95;10.50;;;2.30;99.90;;;;;;5060876;28;19917;-54
2021/01/29 07:18:35;;;;;;;17.05;9.90;;;2.30;99.90;;;;;;5064846;28;20036;-55
2021/01/29 07:21:42;;;;;;;16.83;10.10;;;2.30;99.90;;;;;;5065553;28;20102;-53
2021/01/29 07:24:21;;;;;;;15.80;9.25;;;2.30;99.90;;;;;;5066895;28;20048;-53
2021/01/29 07:27:08;;;;;;;16.52;9.25;;;2.30;99.90;;;;;;5066104;28;20040;-52
2021/01/29 07:30:02;;;;;;;17.58;8.90;;;2.20;99.90;;;;;;5048857;28;20115;-56
2021/01/29 07:32:54;;;;;;;13.75;7.88;;;2.20;99.90;;;;;;5049721;28;20067;-52
2021/01/29 07:36:11;;;;;;;14.38;8.05;;;2.10;99.90;;;;;;5063983;28;20039;-55
2021/01/29 07:39:12;;;;;;;15.57;8.67;;;2.10;99.90;;;;;;5067916;28;20032;-56
2021/01/29 07:42:13;;;;;;;17.40;9.65;;;2.10;99.90;;;;;;5068619;28;20044;-53
2021/01/29 07:44:54;;;;;;;17.00;9.10;;;2.10;99.90;;;;;;5005473;28;20049;-53
2021/01/29 07:47:27;;;;;;;15.90;9.88;;;2.20;99.90;;;;;;5006710;28;20045;-55
2021/01/29 07:49:56;;;;;;;15.27;8.77;;;2.30;99.90;;;;;;5004233;28;20034;-55
2021/01/29 07:52:39;;;;;;;11.40;7.25;;;2.30;99.90;;;;;;5004725;28;20401;-49
2021/01/29 07:55:20;;;;;;;14.20;8.43;;;2.40;99.90;;;;;;5003772;28;20124;-50
2021/01/29 07:58:05;;;;;;;15.25;9.27;;;2.30;99.90;;;;;;5005884;28;20038;-53
2021/01/29 08:00:39;;;;;;;15.90;8.88;;;2.30;99.90;;;;;;5005504;28;20050;-56
2021/01/29 08:03:11;;;;;;;20.67;8.75;;;2.30;99.90;;;;;;5004743;28;20041;-53
2021/01/29 08:05:51;;;;;;;16.67;7.50;;;2.30;99.90;;;;;;5004779;28;20188;-55
2021/01/29 08:08:25;;;;;;;17.70;8.75;;;2.30;99.90;;;;;;5003851;28;20596;-53
2021/01/29 08:10:54;;;;;;;15.27;8.90;;;2.30;99.90;;;;;;5006228;28;20030;-54
2021/01/29 08:13:32;;;;;;;18.90;9.35;;;2.40;99.90;;;;;;5004879;28;20053;-55
2021/01/29 08:16:31;;;;;;;20.25;9.05;;;2.40;99.90;;;;;;5006205;28;20089;-53
2021/01/29 08:19:16;;;;;;;16.95;8.48;;;2.40;99.90;;;;;;5003756;28;20037;-49
2021/01/29 08:21:54;;;;;;;13.38;9.00;;;2.40;99.90;;;;;;5047489;28;20040;-48
2021/01/29 08:24:39;;;;;;;16.30;8.30;;;2.50;99.90;;;;;;5067001;28;20507;-56
2021/01/29 08:27:26;;;;;;;16.30;9.20;;;2.50;99.90;;;;;;5068182;28;20134;-53
2021/01/29 08:30:12;;;;;;;20.63;9.02;;;2.60;99.90;;;;;;5062722;28;20046;-55
2021/01/29 08:32:46;;;;;;;16.38;9.35;;;2.60;99.90;;;;;;5066668;28;20097;-52
2021/01/29 08:35:29;;;;;;;16.80;9.88;;;2.70;99.90;;;;;;5065037;28;20028;-53
2021/01/29 08:38:23;;;;;;;20.60;11.25;;;2.70;99.90;;;;;;5067015;28;20027;-54
2021/01/29 08:41:13;;;;;;;22.13;13.93;;;2.70;99.90;;;;;;5068012;28;20355;-55
2021/01/29 08:43:55;;;;;;;23.77;14.25;;;2.70;99.90;;;;;;5066997;28;20488;-55
2021/01/29 08:46:37;;;;;;;16.98;11.48;;;2.70;99.90;;;;;;5067090;28;20041;-55
2021/01/29 08:49:27;;;;;;;21.08;11.68;;;2.80;99.90;;;;;;5068331;28;20032;-52
2021/01/29 08:52:17;;;;;;;21.60;13.38;;;2.70;99.90;;;;;;5065027;28;20611;-54
2021/01/29 08:54:56;;;;;;;20.48;11.82;;;2.70;99.90;;;;;;5064768;28;20060;-56
2021/01/29 08:57:34;;;;;;;21.80;13.13;;;2.80;99.90;;;;;;5056534;28;20033;-53
2021/01/29 09:00:01;;;;;;;20.63;12.02;;;2.80;99.90;;;;;;5061662;28;20129;-55
2021/01/29 09:03:07;;;;;;;19.35;12.75;;;2.70;99.90;;;;;;5062808;28;20033;-54
2021/01/29 09:05:34;;;;;;;23.17;13.32;;;2.70;99.90;;;;;;5050488;28;20388;-52
2021/01/29 09:08:05;;;;;;;22.67;12.20;;;2.70;99.90;;;;;;5063838;28;20131;-55
2021/01/29 09:10:50;;;;;;;19.77;12.35;;;2.70;99.90;;;;;;5066094;28;20049;-55
2021/01/29 09:13:21;;;;;;;21.02;12.60;;;2.60;99.90;;;;;;5065348;28;20025;-51
2021/01/29 09:15:50;;;;;;;20.75;11.98;;;2.60;99.90;;;;;;5067725;28;20055;-54
2021/01/29 09:18:27;;;;;;;21.33;12.90;;;2.60;99.90;;;;;;5067878;28;20388;-53
2021/01/29 09:21:38;;;;;;;22.02;13.10;;;2.60;99.90;;;;;;5061668;28;20062;-52
2021/01/29 09:24:14;;;;;;;19.08;12.20;;;2.60;99.90;;;;;;5048486;28;20032;-52
2021/01/29 09:27:13;;;;;;;21.73;12.50;;;2.70;99.90;;;;;;5056817;28;20029;-55
2021/01/29 09:29:50;;;;;;;22.50;14.43;;;2.70;99.90;;;;;;5072398;28;20063;-54
2021/01/29 09:32:23;;;;;;;27.00;15.77;;;2.80;99.90;;;;;;5067691;28;20056;-56
2021/01/29 09:34:52;;;;;;;24.70;13.98;;;2.80;99.90;;;;;;5067350;28;20038;-55
2021/01/29 09:37:22;;;;;;;24.60;14.93;;;2.80;99.90;;;;;;5067360;28;20480;-55
2021/01/29 09:40:05;;;;;;;25.10;13.68;;;2.80;99.90;;;;;;5070436;28;20361;-56
2021/01/29 09:42:40;;;;;;;20.50;13.70;;;2.70;99.90;;;;;;5071011;28;20219;-53
2021/01/29 09:45:13;;;;;;;21.65;13.40;;;2.60;99.90;;;;;;5070862;28;20033;-55
2021/01/29 09:47:43;;;;;;;21.92;13.02;;;2.50;99.90;;;;;;5051683;28;20132;-57
2021/01/29 09:50:16;;;;;;;22.67;13.93;;;2.50;99.90;;;;;;5066362;28;20032;-54
2021/01/29 09:53:09;;;;;;;29.98;14.45;;;2.50;99.90;;;;;;5066023;28;20032;-51
2021/01/29 09:55:43;;;;;;;21.60;13.73;;;2.50;99.90;;;;;;5050971;28;20469;-53
2021/01/29 09:58:28;;;;;;;22.85;13.60;;;2.50;99.90;;;;;;5062007;28;20069;-57
2021/01/29 10:01:15;;;;;;;18.25;12.07;;;2.50;99.90;;;;;;5055754;28;20141;-50
2021/01/29 10:04:05;;;;;;;18.52;12.63;;;2.40;99.90;;;;;;5049261;28;20094;-55
2021/01/29 10:07:00;;;;;;;24.42;13.32;;;2.40;99.90;;;;;;5057120;28;20040;-56
2021/01/29 10:09:39;;;;;;;21.75;12.95;;;2.30;99.90;;;;;;5046798;28;20098;-54
2021/01/29 10:12:16;;;;;;;25.05;15.10;;;2.30;99.90;;;;;;5058116;28;20044;-56
2021/01/29 10:15:06;;;;;;;26.13;15.50;;;2.40;99.90;;;;;;5061542;28;20036;-55
2021/01/29 10:17:43;;;;;;;24.85;15.25;;;2.40;99.90;;;;;;5064780;28;20020;-57
2021/01/29 10:20:19;;;;;;;25.58;16.10;;;2.40;99.90;;;;;;5067298;28;20040;-52
2021/01/29 10:23:14;;;;;;;26.70;16.63;;;2.50;99.90;;;;;;5066213;28;20037;-49
2021/01/29 10:26:05;;;;;;;25.58;15.95;;;2.50;99.90;;;;;;5065143;28;20032;-54
2021/01/29 10:28:52;;;;;;;28.70;16.77;;;2.60;99.90;;;;;;5068758;28;20032;-51
2021/01/29 10:31:23;;;;;;;27.98;16.00;;;2.70;99.90;;;;;;5068303;28;20029;-51
2021/01/29 10:34:01;;;;;;;29.05;15.98;;;2.90;99.90;;;;;;5069109;28;20036;-51
2021/01/29 10:36:33;;;;;;;29.50;17.23;;;2.90;99.90;;;;;;5045315;28;20024;-52
2021/01/29 10:39:06;;;;;;;26.77;16.42;;;2.90;99.90;;;;;;5062140;28;20040;-54
2021/01/29 10:41:49;;;;;;;30.25;17.17;;;3.00;99.90;;;;;;5069366;28;20025;-52
2021/01/29 10:44:28;;;;;;;30.05;16.00;;;3.00;99.90;;;;;;5067895;28;20059;-55
2021/01/29 10:46:57;;;;;;;23.42;14.73;;;3.10;99.90;;;;;;5069617;28;20062;-55
2021/01/29 10:49:38;;;;;;;22.50;14.00;;;3.00;99.90;;;;;;5063268;28;20067;-54
2021/01/29 10:52:11;;;;;;;30.45;15.40;;;2.90;99.90;;;;;;5066558;28;20195;-51
2021/01/29 10:54:40;;;;;;;25.10;15.50;;;2.90;99.90;;;;;;5067857;28;20040;-56
2021/01/29 10:57:12;;;;;;;20.60;14.95;;;2.90;99.90;;;;;;5066791;28;20129;-52
2021/01/29 10:59:53;;;;;;;27.13;16.63;;;2.90;99.90;;;;;;5065102;28;20380;-49
2021/01/29 11:02:39;;;;;;;28.08;18.17;;;3.00;99.90;;;;;;5067431;28;20036;-57
2021/01/29 11:05:07;;;;;;;;;;;3.10;99.90;;;;;;5070212;28;20250;-54
2021/01/29 11:07:36;;;;;;;28.02;16.63;;;3.10;99.90;;;;;;5063633;28;19916;-54
2021/01/29 11:10:24;;;;;;;27.48;16.13;;;3.10;99.90;;;;;;5065911;28;20032;-55
2021/01/29 11:12:57;;;;;;;27.25;15.38;;;3.10;99.90;;;;;;5065188;28;20043;-55
2021/01/29 11:15:25;;;;;;;25.67;15.15;;;3.00;99.90;;;;;;5067833;28;20044;-55
2021/01/29 11:18:04;;;;;;;25.95;15.80;;;3.00;99.90;;;;;;5067777;28;20273;-57
2021/01/29 11:20:33;;;;;;;26.05;15.90;;;3.00;99.90;;;;;;5068180;28;20090;-54
2021/01/29 11:23:23;;;;;;;26.50;17.05;;;3.00;99.90;;;;;;5066098;28;20073;-55
2021/01/29 11:26:15;;;;;;;26.52;16.40;;;3.00;99.90;;;;;;5068973;28;20033;-56
2021/01/29 11:28:59;;;;;;;28.38;16.80;;;3.00;99.90;;;;;;5067978;28;20039;-54
2021/01/29 11:31:37;;;;;;;29.25;17.20;;;3.00;99.90;;;;;;5065910;28;20182;-55
2021/01/29 11:34:05;;;;;;;29.08;18.25;;;3.10;99.90;;;;;;5051211;28;20480;-56
2021/01/29 11:36:39;;;;;;;25.95;16.27;;;3.10;99.90;;;;;;5066672;28;20071;-52
2021/01/29 11:39:45;;;;;;;25.83;17.02;;;3.20;99.90;;;;;;5063593;28;20094;-50
2021/01/29 11:42:55;;;;;;;30.83;18.52;;;3.20;99.90;;;;;;5028450;28;20067;-56
2021/01/29 11:45:26;;;;;;;30.52;18.65;;;3.20;99.90;;;;;;4985981;28;20039;-50
2021/01/29 11:48:00;;;;;;;33.47;19.77;;;3.20;99.90;;;;;;4986419;28;20265;-55
2021/01/29 11:50:54;;;;;;;37.97;21.27;;;3.20;99.90;;;;;;4987623;28;20137;-49
2021/01/29 11:53:34;;;;;;;29.70;18.58;;;3.20;99.90;;;;;;4986619;28;20074;-50
2021/01/29 11:56:15;;;;;;;28.80;16.90;;;3.20;99.90;;;;;;4986391;28;20088;-55
2021/01/29 11:58:59;;;;;;;28.65;16.75;;;3.20;99.90;;;;;;4985828;28;20034;-54
2021/01/29 12:01:39;;;;;;;26.20;16.60;;;3.20;99.90;;;;;;4985965;28;20049;-52
2021/01/29 12:04:28;;;;;;;32.55;17.90;;;3.10;99.90;;;;;;5000717;28;20050;-55
2021/01/29 12:07:21;;;;;;;29.63;17.63;;;3.10;99.90;;;;;;5003920;28;20049;-51
2021/01/29 12:10:19;;;;;;;27.98;17.33;;;3.10;99.90;;;;;;4985844;28;20133;-54
2021/01/29 12:13:02;;;;;;;29.02;17.92;;;3.10;99.90;;;;;;4993067;28;20034;-54
2021/01/29 12:15:42;;;;;;;27.58;16.63;;;3.10;99.90;;;;;;5009841;28;20796;-51
2021/01/29 12:18:12;;;;;;;31.17;17.25;;;3.20;99.90;;;;;;5067165;28;20093;-53
2021/01/29 12:20:43;;;;;;;30.17;17.42;;;3.20;99.90;;;;;;5067377;28;20041;-50
2021/01/29 12:23:24;;;;;;;28.67;17.25;;;3.30;99.90;;;;;;5067720;28;20079;-54
2021/01/29 12:25:56;;;;;;;30.40;19.63;;;3.20;99.90;;;;;;5064980;28;20431;-53
2021/01/29 12:28:48;;;;;;;26.27;16.80;;;3.10;99.90;;;;;;5065759;28;20364;-54
2021/01/29 12:31:32;;;;;;;32.45;17.98;;;3.10;99.90;;;;;;5067051;28;20399;-53
2021/01/29 12:34:16;;;;;;;27.38;16.13;;;3.10;99.90;;;;;;5066144;28;20079;-54
2021/01/29 12:37:02;;;;;;;29.73;17.85;;;3.20;99.90;;;;;;5067235;28;20051;-55
2021/01/29 12:39:52;;;;;;;30.27;17.50;;;3.30;99.90;;;;;;5068412;28;20037;-53
2021/01/29 12:42:44;;;;;;;27.10;18.15;;;3.30;99.90;;;;;;5067826;28;20056;-55
2021/01/29 12:45:29;;;;;;;33.55;18.95;;;3.30;99.90;;;;;;5068215;28;20236;-55
2021/01/29 12:48:19;;;;;;;38.93;19.33;;;3.40;99.90;;;;;;5068084;28;20027;-55
2021/01/29 12:51:08;;;;;;;32.08;17.88;;;3.50;99.90;;;;;;5068088;28;20039;-51
2021/01/29 12:53:40;;;;;;;27.23;16.27;;;3.50;99.90;;;;;;5065436;28;20065;-50
2021/01/29 12:56:38;;;;;;;29.52;18.38;;;3.40;99.90;;;;;;5066305;28;20041;-54
2021/01/29 12:59:07;;;;;;;38.92;21.48;;;3.50;99.90;;;;;;5003661;28;20123;-50
2021/01/29 13:01:36;;;;;;;47.67;24.20;;;3.50;99.90;;;;;;5063260;28;20033;-51
2021/01/29 13:04:10;;;;;;;40.20;24.17;;;3.60;99.90;;;;;;5067747;28;20361;-54
2021/01/29 13:06:51;;;;;;;43.20;25.13;;;3.60;99.90;;;;;;5066311;28;20446;-52
2021/01/29 13:09:38;;;;;;;45.88;26.20;;;3.80;99.90;;;;;;5067019;28;20519;-57
2021/01/29 13:12:14;;;;;;;62.50;31.80;;;3.80;99.90;;;;;;5066371;28;20484;-55
2021/01/29 13:15:20;;;;;;;60.40;31.58;;;3.90;99.90;;;;;;5070910;28;20096;-58
2021/01/29 13:17:50;;;;;;;58.55;31.33;;;3.90;99.90;;;;;;5068754;28;20115;-53
2021/01/29 13:20:21;;;;;;;57.05;31.30;;;3.90;99.90;;;;;;5068829;28;20075;-54
2021/01/29 13:22:52;;;;;;;54.75;30.45;;;4.00;99.90;;;;;;5068914;28;20039;-54
2021/01/29 13:25:31;;;;;;;62.05;33.42;;;3.90;99.90;;;;;;5071409;28;20032;-56
2021/01/29 13:28:07;;;;;;;58.35;30.48;;;3.90;99.90;;;;;;5070008;28;20397;-55
2021/01/29 13:30:38;;;;;;;55.88;30.35;;;3.80;99.90;;;;;;5070523;28;20473;-53
2021/01/29 13:33:25;;;;;;;56.78;30.73;;;3.80;99.90;;;;;;5070165;28;20028;-56
2021/01/29 13:36:15;;;;;;;50.95;29.25;;;3.80;99.90;;;;;;5070094;28;20437;-54
2021/01/29 13:38:42;;;;;;;53.70;29.23;;;3.70;99.90;;;;;;5070309;28;20036;-56
2021/01/29 13:41:14;;;;;;;56.15;29.33;;;3.70;99.90;;;;;;5069540;28;20539;-56
2021/01/29 13:43:42;;;;;;;56.53;30.23;;;3.80;99.90;;;;;;5070970;28;20512;-53
2021/01/29 13:46:33;;;;;;;53.40;30.75;;;3.80;99.90;;;;;;5069099;28;20107;-54